Time,TemperatureF,DewpointF,PressureIn,WindDirection,WindDirectionDegrees,WindSpeedMPH,WindSpeedGustMPH,Humidity,HourlyPrecipIn,Conditions,Clouds,dailyrainin,SoftwareType,DateUTC
2013-10-05 00:01:00,75.0,74.5,29.91,East,90,0.0,1.0,98,0.00,,,0.00,meteohub,2013-10-05 04:01:00,
2013-10-05 00:02:00,75.0,74.5,29.91,East,90,0.0,1.0,98,0.00,,,0.00,meteohub,2013-10-05 04:02:00,
2013-10-05 00:04:00,75.0,74.5,29.91,East,90,0.0,1.0,98,0.00,,,0.00,meteohub,2013-10-05 04:04:00,
2013-10-05 00:08:00,75.0,74.5,29.91,East,90,0.0,0.0,98,0.00,,,0.00,meteohub,2013-10-05 04:08:00,
2013-10-05 00:13:00,74.8,74.3,29.91,East,90,0.0,0.0,98,0.00,,,0.00,meteohub,2013-10-05 04:13:00,
2013-10-05 00:18:00,74.8,74.3,29.91,East,90,0.0,0.0,98,0.00,,,0.00,meteohub,2013-10-05 04:18:00,
2013-10-05 00:23:00,74.8,74.3,29.91,East,90,0.0,0.0,98,0.00,,,0.00,meteohub,2013-10-05 04:23:00,
2013-10-05 00:28:00,74.8,74.5,29.90,East,90,0.0,0.0,99,0.00,,,0.00,meteohub,2013-10-05 04:28:00,
2013-10-05 00:33:00,74.8,74.5,29.90,East,90,0.0,0.0,99,0.00,,,0.00,meteohub,2013-10-05 04:33:00,
2013-10-05 00:38:00,74.8,74.5,29.90,East,90,0.0,0.0,99,0.00,,,0.00,meteohub,2013-10-05 04:38:00,
2013-10-05 00:43:00,74.8,74.5,29.90,East,90,0.0,0.0,99,0.00,,,0.00,meteohub,2013-10-05 04:43:00,
2013-10-05 00:48:00,74.8,74.5,29.90,East,90,0.0,0.0,99,0.00,,,0.00,meteohub,2013-10-05 04:48:00,
2013-10-05 00:53:00,74.8,74.5,29.91,East,90,0.0,0.0,99,0.00,,,0.00,meteohub,2013-10-05 04:53:00,
2013-10-05 00:59:00,74.7,74.3,29.90,East,90,0.0,0.0,99,0.00,,,0.00,meteohub,2013-10-05 04:59:00,
2013-10-05 01:04:00,74.7,74.3,29.90,East,90,0.0,0.0,99,0.00,,,0.00,meteohub,2013-10-05 05:04:00,
2013-10-05 01:09:00,74.7,74.3,29.90,East,90,0.0,0.0,99,0.00,,,0.00,meteohub,2013-10-05 05:09:00,
2013-10-05 01:14:00,74.5,74.1,29.90,East,90,0.0,0.0,99,0.00,,,0.00,meteohub,2013-10-05 05:14:00,
2013-10-05 01:19:00,74.5,74.1,29.90,East,90,0.0,0.0,99,0.00,,,0.00,meteohub,2013-10-05 05:19:00,
2013-10-05 01:24:00,74.3,73.9,29.90,North,0,1.0,0.0,99,0.00,,,0.00,meteohub,2013-10-05 05:24:00,
2013-10-05 01:29:00,74.5,74.1,29.90,NW,315,1.0,0.0,99,0.00,,,0.00,meteohub,2013-10-05 05:29:00,
2013-10-05 01:34:00,74.5,74.1,29.90,NW,315,0.0,1.0,99,0.00,,,0.00,meteohub,2013-10-05 05:34:00,
2013-10-05 01:40:00,74.3,73.9,29.90,NW,315,1.0,1.0,99,0.00,,,0.00,meteohub,2013-10-05 05:40:00,
2013-10-05 01:45:00,74.3,73.9,29.90,West,270,0.0,1.0,99,0.00,,,0.00,meteohub,2013-10-05 05:45:00,
2013-10-05 01:50:00,74.1,73.8,29.90,West,270,0.0,1.0,99,0.00,,,0.00,meteohub,2013-10-05 05:50:00,
2013-10-05 01:55:00,74.1,73.8,29.89,West,270,0.0,1.0,99,0.00,,,0.00,meteohub,2013-10-05 05:55:00,
2013-10-05 02:00:00,73.9,73.6,29.89,West,270,0.0,1.0,99,0.00,,,0.00,meteohub,2013-10-05 06:00:00,
2013-10-05 02:05:00,73.8,73.4,29.89,West,270,0.0,0.0,99,0.00,,,0.00,meteohub,2013-10-05 06:05:00,
2013-10-05 02:10:00,73.8,73.4,29.88,West,270,0.0,0.0,99,0.00,,,0.00,meteohub,2013-10-05 06:10:00,
2013-10-05 02:15:00,73.6,73.2,29.88,West,270,0.0,0.0,99,0.00,,,0.00,meteohub,2013-10-05 06:15:00,
2013-10-05 02:20:00,73.2,72.9,29.88,West,270,0.0,0.0,99,0.00,,,0.00,meteohub,2013-10-05 06:20:00,
2013-10-05 02:26:00,73.0,72.7,29.88,West,270,0.0,0.0,99,0.00,,,0.00,meteohub,2013-10-05 06:26:00,
2013-10-05 02:31:00,72.9,72.5,29.88,West,270,0.0,0.0,99,0.00,,,0.00,meteohub,2013-10-05 06:31:00,
2013-10-05 02:36:00,72.7,72.3,29.87,West,270,0.0,0.0,99,0.00,,,0.00,meteohub,2013-10-05 06:36:00,
2013-10-05 02:41:00,72.9,72.5,29.88,West,270,0.0,0.0,99,0.00,,,0.00,meteohub,2013-10-05 06:41:00,
2013-10-05 02:46:00,72.9,72.5,29.87,West,270,0.0,0.0,99,0.00,,,0.00,meteohub,2013-10-05 06:46:00,
2013-10-05 02:51:00,72.9,72.5,29.87,West,270,0.0,0.0,99,0.00,,,0.00,meteohub,2013-10-05 06:51:00,
2013-10-05 02:56:00,72.9,72.5,29.87,West,270,0.0,0.0,99,0.00,,,0.00,meteohub,2013-10-05 06:56:00,
2013-10-05 03:01:00,72.7,72.3,29.87,West,270,0.0,0.0,99,0.00,,,0.00,meteohub,2013-10-05 07:01:00,
2013-10-05 03:06:00,72.5,72.1,29.86,West,270,0.0,0.0,99,0.00,,,0.00,meteohub,2013-10-05 07:06:00,
2013-10-05 03:11:00,72.5,72.1,29.86,West,270,0.0,0.0,99,0.00,,,0.00,meteohub,2013-10-05 07:11:00,
2013-10-05 03:17:00,72.3,72.0,29.86,West,270,0.0,0.0,99,0.00,,,0.00,meteohub,2013-10-05 07:17:00,
2013-10-05 03:22:00,72.3,72.0,29.86,West,270,0.0,0.0,99,0.00,,,0.00,meteohub,2013-10-05 07:22:00,
2013-10-05 03:27:00,72.3,72.0,29.86,West,270,0.0,0.0,99,0.00,,,0.00,meteohub,2013-10-05 07:27:00,
2013-10-05 03:32:00,72.3,72.0,29.86,West,270,0.0,0.0,99,0.00,,,0.00,meteohub,2013-10-05 07:32:00,
2013-10-05 03:37:00,72.3,72.0,29.86,West,270,0.0,0.0,99,0.00,,,0.00,meteohub,2013-10-05 07:37:00,
2013-10-05 03:42:00,72.5,72.1,29.86,West,270,0.0,0.0,99,0.00,,,0.00,meteohub,2013-10-05 07:42:00,
2013-10-05 03:47:00,72.3,72.0,29.86,West,270,0.0,0.0,99,0.00,,,0.00,meteohub,2013-10-05 07:47:00,
2013-10-05 03:52:00,72.1,71.8,29.86,West,270,0.0,0.0,99,0.00,,,0.00,meteohub,2013-10-05 07:52:00,
2013-10-05 03:57:00,72.0,71.6,29.86,West,270,0.0,0.0,99,0.00,,,0.00,meteohub,2013-10-05 07:57:00,
2013-10-05 04:02:00,72.0,71.6,29.86,West,270,0.0,0.0,99,0.00,,,0.00,meteohub,2013-10-05 08:02:00,
2013-10-05 04:07:00,72.0,71.6,29.86,West,270,0.0,0.0,99,0.00,,,0.00,meteohub,2013-10-05 08:07:00,
2013-10-05 04:12:00,72.0,71.6,29.86,West,270,0.0,0.0,99,0.00,,,0.00,meteohub,2013-10-05 08:12:00,
2013-10-05 04:17:00,72.0,71.6,29.85,West,270,0.0,0.0,99,0.00,,,0.00,meteohub,2013-10-05 08:17:00,
2013-10-05 04:22:00,72.0,71.6,29.86,West,270,0.0,0.0,99,0.00,,,0.00,meteohub,2013-10-05 08:22:00,
2013-10-05 04:27:00,72.0,71.6,29.85,North,0,0.0,1.0,99,0.00,,,0.00,meteohub,2013-10-05 08:27:00,
2013-10-05 04:32:00,72.0,71.6,29.86,North,0,1.0,1.0,99,0.00,,,0.00,meteohub,2013-10-05 08:32:00,
2013-10-05 04:37:00,72.1,71.8,29.86,West,270,1.0,2.0,99,0.00,,,0.00,meteohub,2013-10-05 08:37:00,
2013-10-05 04:42:00,72.5,72.1,29.85,NW,315,1.0,2.0,99,0.00,,,0.00,meteohub,2013-10-05 08:42:00,
2013-10-05 04:47:00,72.5,72.1,29.86,North,0,0.0,2.0,99,0.00,,,0.00,meteohub,2013-10-05 08:47:00,
2013-10-05 04:52:00,72.5,72.1,29.86,North,0,0.0,2.0,99,0.00,,,0.00,meteohub,2013-10-05 08:52:00,
2013-10-05 04:57:00,72.5,72.1,29.86,North,0,1.0,2.0,99,0.00,,,0.00,meteohub,2013-10-05 08:57:00,
2013-10-05 05:02:00,72.7,72.3,29.86,North,0,1.0,2.0,99,0.00,,,0.00,meteohub,2013-10-05 09:02:00,
2013-10-05 05:07:00,72.7,72.3,29.86,North,0,1.0,2.0,99,0.00,,,0.00,meteohub,2013-10-05 09:07:00,
2013-10-05 05:12:00,72.7,72.3,29.86,NW,315,1.0,2.0,99,0.00,,,0.00,meteohub,2013-10-05 09:12:00,
2013-10-05 05:17:00,72.7,72.3,29.86,North,0,0.0,2.0,99,0.00,,,0.00,meteohub,2013-10-05 09:17:00,
2013-10-05 05:22:00,72.7,72.3,29.85,North,0,1.0,2.0,99,0.00,,,0.00,meteohub,2013-10-05 09:22:00,
2013-10-05 05:27:00,72.7,72.3,29.85,NW,315,2.0,2.0,99,0.00,,,0.00,meteohub,2013-10-05 09:27:00,
2013-10-05 05:32:00,72.7,72.3,29.86,North,0,1.0,2.0,99,0.00,,,0.00,meteohub,2013-10-05 09:32:00,
2013-10-05 05:37:00,72.7,72.3,29.85,NW,315,1.0,2.0,99,0.00,,,0.00,meteohub,2013-10-05 09:37:00,
2013-10-05 05:42:00,72.5,72.1,29.86,North,0,1.0,3.0,99,0.00,,,0.00,meteohub,2013-10-05 09:42:00,
2013-10-05 05:47:00,72.5,72.1,29.86,North,0,0.0,3.0,99,0.00,,,0.00,meteohub,2013-10-05 09:47:00,
2013-10-05 05:52:00,72.3,72.0,29.86,North,0,0.0,3.0,99,0.00,,,0.00,meteohub,2013-10-05 09:52:00,
2013-10-05 05:57:00,72.1,71.8,29.86,North,0,0.0,2.0,99,0.00,,,0.00,meteohub,2013-10-05 09:57:00,
2013-10-05 06:02:00,71.8,71.4,29.86,North,0,0.0,1.0,99,0.00,,,0.00,meteohub,2013-10-05 10:02:00,
2013-10-05 06:07:00,71.6,71.2,29.86,North,0,0.0,1.0,99,0.00,,,0.00,meteohub,2013-10-05 10:07:00,
2013-10-05 06:12:00,71.6,71.2,29.86,West,270,0.0,1.0,99,0.00,,,0.00,meteohub,2013-10-05 10:12:00,
2013-10-05 06:17:00,71.6,71.2,29.86,West,270,0.0,0.0,99,0.00,,,0.00,meteohub,2013-10-05 10:17:00,
2013-10-05 06:22:00,71.4,71.1,29.87,West,270,0.0,0.0,99,0.00,,,0.00,meteohub,2013-10-05 10:22:00,
2013-10-05 06:27:00,71.4,71.1,29.87,West,270,0.0,0.0,99,0.00,,,0.00,meteohub,2013-10-05 10:27:00,
2013-10-05 06:32:00,71.4,71.1,29.87,West,270,1.0,0.0,99,0.00,,,0.00,meteohub,2013-10-05 10:32:00,
2013-10-05 06:37:00,71.4,71.1,29.87,West,270,0.0,1.0,99,0.00,,,0.00,meteohub,2013-10-05 10:37:00,
2013-10-05 06:42:00,71.2,70.9,29.87,NW,315,0.0,1.0,99,0.00,,,0.00,meteohub,2013-10-05 10:42:00,
2013-10-05 06:47:00,71.2,70.9,29.87,NW,315,0.0,1.0,99,0.00,,,0.00,meteohub,2013-10-05 10:47:00,
2013-10-05 06:52:00,71.1,70.7,29.87,NW,315,0.0,1.0,99,0.00,,,0.00,meteohub,2013-10-05 10:52:00,
2013-10-05 06:57:00,71.1,70.7,29.87,NW,315,1.0,1.0,99,0.00,,,0.00,meteohub,2013-10-05 10:57:00,
2013-10-05 07:02:00,71.1,70.7,29.87,NW,315,0.0,1.0,99,0.00,,,0.00,meteohub,2013-10-05 11:02:00,
2013-10-05 07:07:00,70.9,70.5,29.87,NW,315,0.0,1.0,99,0.00,,,0.00,meteohub,2013-10-05 11:07:00,
2013-10-05 07:12:00,71.1,70.7,29.87,North,0,1.0,1.0,99,0.00,,,0.00,meteohub,2013-10-05 11:12:00,
2013-10-05 07:17:00,71.2,70.9,29.87,North,0,1.0,2.0,99,0.00,,,0.00,meteohub,2013-10-05 11:17:00,
2013-10-05 07:22:00,71.1,70.7,29.87,North,0,0.0,2.0,99,0.00,,,0.00,meteohub,2013-10-05 11:22:00,
2013-10-05 07:27:00,71.1,70.7,29.86,North,0,0.0,2.0,99,0.00,,,0.00,meteohub,2013-10-05 11:27:00,
2013-10-05 07:32:00,71.4,71.1,29.87,North,0,1.0,2.0,99,0.00,,,0.00,meteohub,2013-10-05 11:32:00,
2013-10-05 07:37:00,72.1,71.8,29.87,North,0,1.0,2.0,99,0.00,,,0.00,meteohub,2013-10-05 11:37:00,
2013-10-05 07:42:00,73.4,73.0,29.86,NW,315,1.0,2.0,99,0.00,,,0.00,meteohub,2013-10-05 11:42:00,
2013-10-05 07:47:00,74.8,74.5,29.87,West,270,0.0,2.0,99,0.00,,,0.00,meteohub,2013-10-05 11:47:00,
2013-10-05 07:52:00,76.1,75.7,29.87,NW,315,1.0,2.0,99,0.00,,,0.00,meteohub,2013-10-05 11:52:00,
2013-10-05 07:57:00,77.2,76.8,29.87,West,270,1.0,2.0,99,0.00,,,0.00,meteohub,2013-10-05 11:57:00,
2013-10-05 08:02:00,78.8,78.4,29.87,West,270,0.0,2.0,99,0.00,,,0.00,meteohub,2013-10-05 12:02:00,
2013-10-05 08:07:00,80.4,77.9,29.87,North,0,0.0,2.0,92,0.00,,,0.00,meteohub,2013-10-05 12:07:00,
2013-10-05 08:12:00,81.3,76.5,29.87,North,0,1.0,2.0,85,0.00,,,0.00,meteohub,2013-10-05 12:12:00,
2013-10-05 08:17:00,81.9,75.7,29.87,North,0,2.0,2.0,82,0.00,,,0.00,meteohub,2013-10-05 12:17:00,
2013-10-05 08:22:00,82.9,76.5,29.87,North,0,1.0,2.0,81,0.00,,,0.00,meteohub,2013-10-05 12:22:00,
2013-10-05 08:27:00,84.2,77.4,29.87,NW,315,1.0,2.0,80,0.00,,,0.00,meteohub,2013-10-05 12:27:00,
2013-10-05 08:32:00,85.1,76.3,29.88,North,0,1.0,2.0,75,0.00,,,0.00,meteohub,2013-10-05 12:32:00,
2013-10-05 08:37:00,86.4,77.9,29.88,West,270,1.0,2.0,76,0.00,,,0.00,meteohub,2013-10-05 12:37:00,
2013-10-05 08:42:00,86.9,76.8,29.88,North,0,1.0,2.0,72,0.00,,,0.00,meteohub,2013-10-05 12:42:00,
2013-10-05 08:47:00,87.3,76.6,29.89,West,270,0.0,2.0,71,0.00,,,0.00,meteohub,2013-10-05 12:47:00,
2013-10-05 08:52:00,88.0,76.5,29.88,North,0,2.0,2.0,69,0.00,,,0.00,meteohub,2013-10-05 12:52:00,
2013-10-05 08:57:00,88.5,76.6,29.88,NW,315,1.0,2.0,68,0.00,,,0.00,meteohub,2013-10-05 12:57:00,
2013-10-05 09:02:00,88.7,75.9,29.88,North,0,1.0,2.0,66,0.00,,,0.00,meteohub,2013-10-05 13:02:00,
2013-10-05 09:07:00,89.4,76.1,29.88,North,0,1.0,3.0,65,0.00,,,0.00,meteohub,2013-10-05 13:07:00,
2013-10-05 09:12:00,90.0,76.1,29.88,North,0,1.0,3.0,64,0.00,,,0.00,meteohub,2013-10-05 13:12:00,
2013-10-05 09:17:00,89.8,75.6,29.89,North,0,2.0,3.0,63,0.00,,,0.00,meteohub,2013-10-05 13:17:00,
2013-10-05 09:22:00,89.4,76.1,29.88,North,0,2.0,2.0,65,0.00,,,0.00,meteohub,2013-10-05 13:22:00,
2013-10-05 09:27:00,89.8,75.9,29.88,North,0,2.0,2.0,64,0.00,,,0.00,meteohub,2013-10-05 13:27:00,
2013-10-05 09:32:00,90.9,77.0,29.89,NW,315,1.0,2.0,64,0.00,,,0.00,meteohub,2013-10-05 13:32:00,
2013-10-05 09:37:00,92.1,76.6,29.89,SE,135,2.0,2.0,61,0.00,,,0.00,meteohub,2013-10-05 13:37:00,
2013-10-05 09:42:00,91.6,74.1,29.89,North,0,4.0,4.0,57,0.00,,,0.00,meteohub,2013-10-05 13:42:00,
2013-10-05 09:47:00,91.6,75.2,29.89,North,0,1.0,4.0,59,0.00,,,0.00,meteohub,2013-10-05 13:47:00,
2013-10-05 09:53:00,90.9,75.0,29.89,North,0,1.0,4.0,60,0.00,,,0.00,meteohub,2013-10-05 13:53:00,
2013-10-05 09:58:00,90.7,75.4,29.89,SE,135,1.0,4.0,61,0.00,,,0.00,meteohub,2013-10-05 13:58:00,
2013-10-05 10:03:00,92.5,75.0,29.89,West,270,2.0,2.0,57,0.00,,,0.00,meteohub,2013-10-05 14:03:00,
2013-10-05 10:08:00,92.1,75.2,29.89,SE,135,7.0,7.0,58,0.00,,,0.00,meteohub,2013-10-05 14:08:00,
2013-10-05 10:13:00,89.8,74.1,29.89,East,90,4.0,7.0,60,0.00,,,0.00,meteohub,2013-10-05 14:13:00,
2013-10-05 10:18:00,87.4,73.2,29.90,NE,45,5.0,8.0,63,0.00,,,0.00,meteohub,2013-10-05 14:18:00,
2013-10-05 10:23:00,87.3,73.6,29.90,East,90,4.0,8.0,64,0.00,,,0.00,meteohub,2013-10-05 14:23:00,
2013-10-05 10:28:00,86.7,73.6,29.90,East,90,4.0,8.0,65,0.00,,,0.00,meteohub,2013-10-05 14:28:00,
2013-10-05 10:33:00,85.8,73.6,29.90,East,90,2.0,8.0,67,0.00,,,0.00,meteohub,2013-10-05 14:33:00,
2013-10-05 10:39:00,86.2,73.9,29.90,ESE,113,2.0,8.0,67,0.00,,,0.00,meteohub,2013-10-05 14:39:00,
2013-10-05 10:44:00,87.1,74.3,29.90,SE,135,2.0,7.0,66,0.00,,,0.00,meteohub,2013-10-05 14:44:00,
2013-10-05 10:49:00,88.2,74.5,29.90,East,90,6.0,8.0,64,0.00,,,0.00,meteohub,2013-10-05 14:49:00,
2013-10-05 10:54:00,87.8,73.6,29.90,East,90,7.0,8.0,63,0.00,,,0.00,meteohub,2013-10-05 14:54:00,
2013-10-05 10:59:00,86.4,73.2,29.90,East,90,3.0,11.0,65,0.00,,,0.00,meteohub,2013-10-05 14:59:00,
2013-10-05 11:04:00,86.0,72.9,29.90,East,90,5.0,11.0,65,0.00,,,0.00,meteohub,2013-10-05 15:04:00,
2013-10-05 11:09:00,86.0,73.2,29.90,East,90,2.0,8.0,66,0.00,,,0.00,meteohub,2013-10-05 15:09:00,
2013-10-05 11:15:00,86.0,72.3,29.90,East,90,4.0,7.0,64,0.00,,,0.00,meteohub,2013-10-05 15:15:00,
2013-10-05 11:20:00,85.8,72.7,29.90,East,90,4.0,7.0,65,0.00,,,0.00,meteohub,2013-10-05 15:20:00,
2013-10-05 11:25:00,86.4,72.7,29.90,East,90,6.0,7.0,64,0.00,,,0.00,meteohub,2013-10-05 15:25:00,
2013-10-05 11:30:00,87.4,71.8,29.90,North,0,5.0,8.0,60,0.00,,,0.00,meteohub,2013-10-05 15:30:00,
2013-10-05 11:35:00,88.2,71.6,29.89,East,90,4.0,8.0,58,0.00,,,0.00,meteohub,2013-10-05 15:35:00,
2013-10-05 11:40:00,88.5,71.8,29.90,East,90,8.0,8.0,58,0.00,,,0.00,meteohub,2013-10-05 15:40:00,
2013-10-05 11:45:00,87.8,72.7,29.90,East,90,2.0,8.0,61,0.00,,,0.00,meteohub,2013-10-05 15:45:00,
2013-10-05 11:51:00,89.6,71.2,29.89,North,0,4.0,8.0,55,0.00,,,0.00,meteohub,2013-10-05 15:51:00,
2013-10-05 11:56:00,90.1,71.2,29.89,East,90,5.0,8.0,54,0.00,,,0.00,meteohub,2013-10-05 15:56:00,
2013-10-05 12:02:00,90.0,71.1,29.89,East,90,3.0,7.0,54,0.00,,,0.00,meteohub,2013-10-05 16:02:00,
2013-10-05 12:07:00,89.2,71.4,29.89,North,0,8.0,8.0,56,0.00,,,0.00,meteohub,2013-10-05 16:07:00,
2013-10-05 12:12:00,89.2,70.3,29.89,East,90,8.0,8.0,54,0.00,,,0.00,meteohub,2013-10-05 16:12:00,
2013-10-05 12:17:00,88.3,68.0,29.89,East,90,7.0,8.0,51,0.00,,,0.00,meteohub,2013-10-05 16:17:00,
2013-10-05 12:22:00,88.3,70.2,29.88,East,90,3.0,9.0,55,0.00,,,0.00,meteohub,2013-10-05 16:22:00,
2013-10-05 12:27:00,88.5,69.8,29.88,SE,135,8.0,9.0,54,0.00,,,0.00,meteohub,2013-10-05 16:27:00,
2013-10-05 12:32:00,88.3,68.0,29.89,SE,135,11.0,11.0,51,0.00,,,0.00,meteohub,2013-10-05 16:32:00,
2013-10-05 12:37:00,88.0,68.2,29.88,East,90,8.0,11.0,52,0.00,,,0.00,meteohub,2013-10-05 16:37:00,
2013-10-05 12:42:00,88.9,70.2,29.88,East,90,4.0,11.0,54,0.00,,,0.00,meteohub,2013-10-05 16:42:00,
2013-10-05 12:48:00,89.4,69.4,29.88,NE,45,2.0,11.0,52,0.00,,,0.00,meteohub,2013-10-05 16:48:00,
2013-10-05 12:53:00,90.1,65.8,29.88,NE,45,1.0,8.0,45,0.00,,,0.00,meteohub,2013-10-05 16:53:00,
2013-10-05 12:58:00,90.7,66.4,29.88,ESE,113,8.0,8.0,45,0.00,,,0.00,meteohub,2013-10-05 16:58:00,
2013-10-05 13:03:00,90.7,68.4,29.87,East,90,4.0,9.0,48,0.00,,,0.00,meteohub,2013-10-05 17:03:00,
2013-10-05 13:08:00,89.8,63.0,29.87,NE,45,9.0,9.0,41,0.00,,,0.00,meteohub,2013-10-05 17:08:00,
2013-10-05 13:13:00,90.0,66.4,29.87,East,90,4.0,11.0,46,0.00,,,0.00,meteohub,2013-10-05 17:13:00,
2013-10-05 13:18:00,90.9,64.6,29.87,North,0,1.0,11.0,42,0.00,,,0.00,meteohub,2013-10-05 17:18:00,
2013-10-05 13:23:00,91.6,67.8,29.87,SE,135,5.0,11.0,46,0.00,,,0.00,meteohub,2013-10-05 17:23:00,
2013-10-05 13:29:00,91.8,68.7,29.86,North,0,1.0,7.0,47,0.00,,,0.00,meteohub,2013-10-05 17:29:00,
2013-10-05 13:34:00,93.0,64.4,29.87,North,0,1.0,7.0,39,0.00,,,0.00,meteohub,2013-10-05 17:34:00,
2013-10-05 13:39:00,91.8,67.5,29.86,East,90,6.0,6.0,45,0.00,,,0.00,meteohub,2013-10-05 17:39:00,
2013-10-05 13:44:00,90.3,69.1,29.86,ENE,68,11.0,11.0,50,0.00,,,0.00,meteohub,2013-10-05 17:44:00,
2013-10-05 13:49:00,89.6,69.1,29.86,SE,135,1.0,11.0,51,0.00,,,0.00,meteohub,2013-10-05 17:49:00,
2013-10-05 13:54:00,91.4,68.4,29.85,SE,135,2.0,11.0,47,0.00,,,0.00,meteohub,2013-10-05 17:54:00,
2013-10-05 13:59:00,93.4,66.2,29.85,East,90,2.0,11.0,41,0.00,,,0.00,meteohub,2013-10-05 17:59:00,
2013-10-05 14:04:00,93.0,63.0,29.85,North,0,1.0,8.0,37,0.00,,,0.00,meteohub,2013-10-05 18:04:00,
2013-10-05 14:09:00,93.7,64.2,29.85,East,90,8.0,8.0,38,0.00,,,0.00,meteohub,2013-10-05 18:09:00,
2013-10-05 14:14:00,91.6,66.6,29.85,East,90,4.0,8.0,44,0.00,,,0.00,meteohub,2013-10-05 18:14:00,
2013-10-05 14:20:00,92.3,65.8,29.85,SE,135,5.0,8.0,42,0.00,,,0.00,meteohub,2013-10-05 18:20:00,
2013-10-05 14:25:00,92.1,67.1,29.84,NE,45,5.0,8.0,44,0.00,,,0.00,meteohub,2013-10-05 18:25:00,
2013-10-05 14:30:00,91.2,67.5,29.84,East,90,4.0,8.0,46,0.00,,,0.00,meteohub,2013-10-05 18:30:00,
2013-10-05 14:35:00,90.7,67.1,29.84,East,90,3.0,6.0,46,0.00,,,0.00,meteohub,2013-10-05 18:35:00,
2013-10-05 14:40:00,90.5,68.7,29.84,North,0,1.0,8.0,49,0.00,,,0.00,meteohub,2013-10-05 18:40:00,
2013-10-05 14:45:00,90.7,70.0,29.84,NE,45,10.0,10.0,51,0.00,,,0.00,meteohub,2013-10-05 18:45:00,
2013-10-05 14:50:00,89.6,70.7,29.84,East,90,4.0,10.0,54,0.00,,,0.00,meteohub,2013-10-05 18:50:00,
2013-10-05 14:55:00,88.7,70.5,29.84,East,90,2.0,11.0,55,0.00,,,0.00,meteohub,2013-10-05 18:55:00,
2013-10-05 15:00:00,88.7,69.4,29.83,East,90,11.0,11.0,53,0.00,,,0.00,meteohub,2013-10-05 19:00:00,
2013-10-05 15:05:00,88.3,70.7,29.83,East,90,4.0,11.0,56,0.00,,,0.00,meteohub,2013-10-05 19:05:00,
2013-10-05 15:11:00,88.7,71.4,29.83,SE,135,3.0,11.0,57,0.00,,,0.00,meteohub,2013-10-05 19:11:00,
2013-10-05 15:16:00,89.1,71.2,29.83,North,0,4.0,11.0,56,0.00,,,0.00,meteohub,2013-10-05 19:16:00,
2013-10-05 15:21:00,89.2,70.9,29.82,East,90,5.0,8.0,55,0.00,,,0.00,meteohub,2013-10-05 19:21:00,
2013-10-05 15:26:00,88.0,71.8,29.82,East,90,6.0,6.0,59,0.00,,,0.00,meteohub,2013-10-05 19:26:00,
2013-10-05 15:31:00,86.9,71.8,29.83,East,90,4.0,8.0,61,0.00,,,0.00,meteohub,2013-10-05 19:31:00,
2013-10-05 15:37:00,87.8,72.1,29.82,East,90,4.0,8.0,60,0.00,,,0.00,meteohub,2013-10-05 19:37:00,
2013-10-05 15:42:00,88.0,72.3,29.83,NE,45,8.0,8.0,60,0.00,,,0.00,meteohub,2013-10-05 19:42:00,
2013-10-05 15:47:00,89.1,71.8,29.82,East,90,6.0,10.0,57,0.00,,,0.00,meteohub,2013-10-05 19:47:00,
2013-10-05 15:52:00,88.3,72.7,29.82,East,90,10.0,10.0,60,0.00,,,0.00,meteohub,2013-10-05 19:52:00,
2013-10-05 15:57:00,88.5,72.3,29.82,East,90,8.0,10.0,59,0.00,,,0.00,meteohub,2013-10-05 19:57:00,
2013-10-05 16:02:00,89.4,72.7,29.82,North,0,2.0,10.0,58,0.00,,,0.00,meteohub,2013-10-05 20:02:00,
2013-10-05 16:07:00,92.1,71.4,29.82,East,90,8.0,10.0,51,0.00,,,0.00,meteohub,2013-10-05 20:07:00,
2013-10-05 16:12:00,91.0,72.7,29.82,East,90,5.0,9.0,55,0.00,,,0.00,meteohub,2013-10-05 20:12:00,
2013-10-05 16:17:00,89.6,71.8,29.82,East,90,2.0,9.0,56,0.00,,,0.00,meteohub,2013-10-05 20:17:00,
2013-10-05 16:22:00,89.2,70.9,29.82,East,90,8.0,9.0,55,0.00,,,0.00,meteohub,2013-10-05 20:22:00,
2013-10-05 16:27:00,90.1,71.8,29.82,NE,45,6.0,10.0,55,0.00,,,0.00,meteohub,2013-10-05 20:27:00,
2013-10-05 16:32:00,90.1,72.3,29.82,NE,45,4.0,10.0,56,0.00,,,0.00,meteohub,2013-10-05 20:32:00,
2013-10-05 16:37:00,91.0,71.6,29.82,NE,45,5.0,8.0,53,0.00,,,0.00,meteohub,2013-10-05 20:37:00,
2013-10-05 16:42:00,90.1,71.2,29.81,East,90,6.0,8.0,54,0.00,,,0.00,meteohub,2013-10-05 20:42:00,
2013-10-05 16:48:00,90.5,72.1,29.81,East,90,2.0,10.0,55,0.00,,,0.00,meteohub,2013-10-05 20:48:00,
2013-10-05 16:53:00,90.3,72.0,29.81,East,90,8.0,10.0,55,0.00,,,0.00,meteohub,2013-10-05 20:53:00,
2013-10-05 16:58:00,89.6,72.3,29.81,East,90,4.0,10.0,57,0.00,,,0.00,meteohub,2013-10-05 20:58:00,
2013-10-05 17:03:00,89.6,72.9,29.81,East,90,5.0,9.0,58,0.00,,,0.00,meteohub,2013-10-05 21:03:00,
2013-10-05 17:08:00,89.8,73.0,29.81,East,90,5.0,9.0,58,0.00,,,0.00,meteohub,2013-10-05 21:08:00,
2013-10-05 17:14:00,91.0,73.2,29.81,North,0,2.0,8.0,56,0.00,,,0.00,meteohub,2013-10-05 21:14:00,
2013-10-05 17:19:00,89.2,72.5,29.81,NE,45,7.0,7.0,58,0.00,,,0.00,meteohub,2013-10-05 21:19:00,
2013-10-05 17:24:00,87.1,72.9,29.81,East,90,4.0,11.0,63,0.00,,,0.00,meteohub,2013-10-05 21:24:00,
2013-10-05 17:29:00,87.8,72.1,29.81,NE,45,2.0,11.0,60,0.00,,,0.00,meteohub,2013-10-05 21:29:00,
2013-10-05 17:34:00,88.7,72.5,29.81,East,90,7.0,11.0,59,0.00,,,0.00,meteohub,2013-10-05 21:34:00,
2013-10-05 17:40:00,88.2,73.0,29.81,East,90,4.0,8.0,61,0.00,,,0.00,meteohub,2013-10-05 21:40:00,
2013-10-05 17:45:00,87.8,73.2,29.81,East,90,11.0,11.0,62,0.00,,,0.00,meteohub,2013-10-05 21:45:00,
2013-10-05 17:50:00,87.3,73.6,29.81,SE,135,6.0,11.0,64,0.00,,,0.00,meteohub,2013-10-05 21:50:00,
2013-10-05 17:55:00,87.6,73.4,29.81,NE,45,4.0,11.0,63,0.00,,,0.00,meteohub,2013-10-05 21:55:00,
2013-10-05 18:00:00,88.0,72.9,29.82,East,90,9.0,9.0,61,0.00,,,0.00,meteohub,2013-10-05 22:00:00,
2013-10-05 18:05:00,87.6,72.5,29.81,East,90,6.0,10.0,61,0.00,,,0.00,meteohub,2013-10-05 22:05:00,
2013-10-05 18:10:00,87.6,73.0,29.82,East,90,6.0,10.0,62,0.00,,,0.00,meteohub,2013-10-05 22:10:00,
2013-10-05 18:16:00,86.5,72.5,29.82,North,0,1.0,10.0,63,0.00,,,0.00,meteohub,2013-10-05 22:16:00,
2013-10-05 18:21:00,85.6,72.5,29.82,East,90,8.0,9.0,65,0.00,,,0.00,meteohub,2013-10-05 22:21:00,
2013-10-05 18:26:00,84.6,73.2,29.82,East,90,2.0,8.0,69,0.00,,,0.00,meteohub,2013-10-05 22:26:00,
2013-10-05 18:31:00,84.2,73.4,29.82,NE,45,2.0,8.0,70,0.00,,,0.00,meteohub,2013-10-05 22:31:00,
2013-10-05 18:36:00,83.7,72.9,29.82,North,0,6.0,8.0,70,0.00,,,0.00,meteohub,2013-10-05 22:36:00,
2013-10-05 18:41:00,83.3,72.5,29.82,NE,45,5.0,10.0,70,0.00,,,0.00,meteohub,2013-10-05 22:41:00,
2013-10-05 18:46:00,82.9,72.5,29.82,North,0,1.0,10.0,71,0.00,,,0.00,meteohub,2013-10-05 22:46:00,
2013-10-05 18:51:00,82.6,73.0,29.82,East,90,3.0,10.0,73,0.00,,,0.00,meteohub,2013-10-05 22:51:00,
2013-10-05 18:57:00,82.2,73.0,29.82,NE,45,1.0,6.0,74,0.00,,,0.00,meteohub,2013-10-05 22:57:00,
2013-10-05 19:02:00,81.9,73.2,29.82,NE,45,1.0,3.0,75,0.00,,,0.00,meteohub,2013-10-05 23:02:00,
2013-10-05 19:07:00,81.7,73.8,29.81,NE,45,1.0,3.0,77,0.00,,,0.00,meteohub,2013-10-05 23:07:00,
2013-10-05 19:12:00,81.5,73.9,29.81,East,90,1.0,2.0,78,0.00,,,0.00,meteohub,2013-10-05 23:12:00,
2013-10-05 19:17:00,81.3,74.5,29.82,East,90,2.0,3.0,80,0.00,,,0.00,meteohub,2013-10-05 23:17:00,
2013-10-05 19:22:00,81.3,74.8,29.82,NE,45,1.0,3.0,81,0.00,,,0.00,meteohub,2013-10-05 23:22:00,
2013-10-05 19:27:00,81.3,75.4,29.82,ESE,113,3.0,5.0,82,0.00,,,0.00,meteohub,2013-10-05 23:27:00,
2013-10-05 19:32:00,81.5,75.4,29.82,East,90,3.0,8.0,82,0.00,,,0.00,meteohub,2013-10-05 23:32:00,
2013-10-05 19:38:00,81.5,75.4,29.82,East,90,4.0,8.0,82,0.00,,,0.00,meteohub,2013-10-05 23:38:00,
2013-10-05 19:43:00,81.5,75.0,29.83,East,90,2.0,8.0,81,0.00,,,0.00,meteohub,2013-10-05 23:43:00,
2013-10-05 19:48:00,81.5,74.7,29.82,East,90,3.0,9.0,80,0.00,,,0.00,meteohub,2013-10-05 23:48:00,
2013-10-05 19:53:00,81.5,74.3,29.83,East,90,6.0,9.0,79,0.00,,,0.00,meteohub,2013-10-05 23:53:00,
2013-10-05 19:58:00,81.7,74.1,29.82,North,0,5.0,9.0,78,0.00,,,0.00,meteohub,2013-10-05 23:58:00,
2013-10-05 20:03:00,81.7,73.4,29.83,East,90,3.0,8.0,76,0.00,,,0.00,meteohub,2013-10-06 00:03:00,
2013-10-05 20:08:00,81.7,73.4,29.83,East,90,2.0,8.0,76,0.00,,,0.00,meteohub,2013-10-06 00:08:00,
2013-10-05 20:14:00,81.7,73.8,29.83,East,90,2.0,8.0,77,0.00,,,0.00,meteohub,2013-10-06 00:14:00,
2013-10-05 20:19:00,81.7,73.8,29.83,NE,45,3.0,5.0,77,0.00,,,0.00,meteohub,2013-10-06 00:19:00,
2013-10-05 20:24:00,81.5,73.6,29.83,NE,45,4.0,4.0,77,0.00,,,0.00,meteohub,2013-10-06 00:24:00,
2013-10-05 20:29:00,81.7,74.1,29.83,NE,45,4.0,4.0,78,0.00,,,0.00,meteohub,2013-10-06 00:29:00,
2013-10-05 20:34:00,81.5,74.3,29.83,East,90,7.0,7.0,79,0.00,,,0.00,meteohub,2013-10-06 00:34:00,
2013-10-05 20:39:00,81.5,74.7,29.84,East,90,2.0,8.0,80,0.00,,,0.00,meteohub,2013-10-06 00:39:00,
2013-10-05 20:44:00,81.3,74.8,29.83,East,90,8.0,8.0,81,0.00,,,0.00,meteohub,2013-10-06 00:44:00,
2013-10-05 20:49:00,81.3,74.8,29.83,NE,45,2.0,8.0,81,0.00,,,0.00,meteohub,2013-10-06 00:49:00,
2013-10-05 20:55:00,81.3,74.8,29.84,East,90,3.0,8.0,81,0.00,,,0.00,meteohub,2013-10-06 00:55:00,
2013-10-05 21:00:00,81.1,75.2,29.84,NE,45,2.0,8.0,82,0.00,,,0.00,meteohub,2013-10-06 01:00:00,
2013-10-05 21:05:00,81.0,75.0,29.84,East,90,1.0,8.0,82,0.00,,,0.00,meteohub,2013-10-06 01:05:00,
2013-10-05 21:10:00,80.8,74.8,29.84,East,90,1.0,7.0,82,0.00,,,0.00,meteohub,2013-10-06 01:10:00,
2013-10-05 21:15:00,80.6,74.7,29.84,East,90,1.0,4.0,82,0.00,,,0.00,meteohub,2013-10-06 01:15:00,
2013-10-05 21:20:00,80.2,74.7,29.84,East,90,0.0,3.0,83,0.00,,,0.00,meteohub,2013-10-06 01:20:00,
2013-10-05 21:25:00,80.1,74.5,29.85,NE,45,2.0,3.0,83,0.00,,,0.00,meteohub,2013-10-06 01:25:00,
2013-10-05 21:30:00,80.1,74.5,29.85,East,90,1.0,2.0,83,0.00,,,0.00,meteohub,2013-10-06 01:30:00,
2013-10-05 21:36:00,79.9,74.7,29.85,East,90,2.0,2.0,84,0.00,,,0.00,meteohub,2013-10-06 01:36:00,
2013-10-05 21:41:00,79.9,74.7,29.84,East,90,1.0,3.0,84,0.00,,,0.00,meteohub,2013-10-06 01:41:00,
2013-10-05 21:46:00,79.9,74.7,29.84,East,90,3.0,3.0,84,0.00,,,0.00,meteohub,2013-10-06 01:46:00,
2013-10-05 21:51:00,79.9,74.7,29.84,South,180,2.0,3.0,84,0.00,,,0.00,meteohub,2013-10-06 01:51:00,
2013-10-05 21:56:00,79.9,74.3,29.84,East,90,4.0,4.0,83,0.00,,,0.00,meteohub,2013-10-06 01:56:00,
2013-10-05 22:01:00,79.9,74.3,29.84,East,90,2.0,4.0,83,0.00,,,0.00,meteohub,2013-10-06 02:01:00,
2013-10-05 22:06:00,79.7,74.1,29.84,NE,45,1.0,4.0,83,0.00,,,0.00,meteohub,2013-10-06 02:06:00,
2013-10-05 22:11:00,79.7,74.1,29.84,East,90,2.0,4.0,83,0.00,,,0.00,meteohub,2013-10-06 02:11:00,
2013-10-05 22:17:00,79.9,74.3,29.84,East,90,2.0,2.0,83,0.00,,,0.00,meteohub,2013-10-06 02:17:00,
2013-10-05 22:22:00,79.9,74.3,29.84,East,90,1.0,2.0,83,0.00,,,0.00,meteohub,2013-10-06 02:22:00,
2013-10-05 22:27:00,79.9,74.3,29.85,East,90,0.0,4.0,83,0.00,,,0.00,meteohub,2013-10-06 02:27:00,
2013-10-05 22:32:00,79.9,74.3,29.85,SE,135,1.0,4.0,83,0.00,,,0.00,meteohub,2013-10-06 02:32:00,
2013-10-05 22:37:00,79.7,74.1,29.85,East,90,2.0,3.0,83,0.00,,,0.00,meteohub,2013-10-06 02:37:00,
2013-10-05 22:42:00,79.7,74.5,29.85,East,90,0.0,3.0,84,0.00,,,0.00,meteohub,2013-10-06 02:42:00,
2013-10-05 22:47:00,79.5,74.3,29.85,East,90,0.0,2.0,84,0.00,,,0.00,meteohub,2013-10-06 02:47:00,
2013-10-05 22:52:00,79.2,74.3,29.86,East,90,0.0,2.0,85,0.00,,,0.00,meteohub,2013-10-06 02:52:00,
2013-10-05 22:57:00,79.0,74.5,29.85,East,90,0.0,2.0,86,0.00,,,0.00,meteohub,2013-10-06 02:57:00,
2013-10-05 23:02:00,78.6,74.1,29.85,East,90,0.0,1.0,86,0.00,,,0.00,meteohub,2013-10-06 03:02:00,
2013-10-05 23:07:00,78.4,74.3,29.85,East,90,0.0,1.0,87,0.00,,,0.00,meteohub,2013-10-06 03:07:00,
2013-10-05 23:12:00,78.3,74.7,29.85,NE,45,0.0,0.0,89,0.00,,,0.00,meteohub,2013-10-06 03:12:00,
2013-10-05 23:17:00,78.3,74.7,29.85,NE,45,0.0,0.0,89,0.00,,,0.00,meteohub,2013-10-06 03:17:00,
2013-10-05 23:22:00,77.9,74.5,29.85,NE,45,0.0,0.0,89,0.00,,,0.00,meteohub,2013-10-06 03:22:00,
2013-10-05 23:27:00,77.9,74.7,29.85,NE,45,0.0,0.0,90,0.00,,,0.00,meteohub,2013-10-06 03:27:00,
2013-10-05 23:32:00,77.5,74.7,29.85,NE,45,0.0,0.0,91,0.00,,,0.00,meteohub,2013-10-06 03:32:00,
2013-10-05 23:37:00,77.5,74.7,29.85,NE,45,0.0,0.0,91,0.00,,,0.00,meteohub,2013-10-06 03:37:00,
2013-10-05 23:42:00,77.4,74.5,29.85,NE,45,0.0,0.0,91,0.00,,,0.00,meteohub,2013-10-06 03:42:00,
2013-10-05 23:47:00,77.2,75.0,29.85,NE,45,0.0,0.0,93,0.00,,,0.00,meteohub,2013-10-06 03:47:00,
2013-10-05 23:52:00,77.2,75.0,29.85,NE,45,0.0,0.0,93,0.00,,,0.00,meteohub,2013-10-06 03:52:00,
2013-10-05 23:57:00,77.0,75.2,29.85,NE,45,0.0,0.0,94,0.00,,,0.00,meteohub,2013-10-06 03:57:00,